Other Surface Observations
Issued by NWS Missoula, MT

Home | Current Version | Previous Version | Text Only | Print | Product List | Glossary On
Versions: 1 2 3 4 5 6 7 8 9 10 11 12 13 14 15 16 17 18 19 20 21 22 23 24 25 26 27 28 29 30 31 32 33 34 35 36 37 38 39 40 41 42 43 44 45 46 47 48 49 50
000
SXUS55 KMSO 262103
OSOMSO
MONTANA AWOS SUMMARY
NATIONAL WEATHER SERVICE MISSOULA MT
203 PM MST SUN MAR 26 2017

Montana AWOS Reports

LAUREL      |K6S8 262055Z AUTO 00000KT 40SM 14/M02 A2987 RMK AO1 T01391021
SCOBEY      |K9S2 262055Z AUTO 27015KT 40SM 13/M08 A2987 RMK AO1 T01281077
EKALAKA     |K97M 262055Z AUTO 14005KT 40SM 13/M01 A2989 RMK AO1 T01331005
PLAINS      |KS34 262055Z AUTO 00000KT 40SM 12/M02 A2988 RMK AO1 T01171016
TWIN BRIDGES|K7S1 262055Z AUTO 21007KT 40SM 11/M10 A2988 RMK AO1 T01061099




USA.gov is the U.S. government's official web portal to all federal, state and local government web resources and services.